PWSweather.com
Personal Weather Stations
Station Observations
LOBIOS
Galicia, LobiosES

GaliciaLobiosES

Lat: 41.895, Lon: -8.091667

Elevation: 1597

Station Type: Automática/Davis Vantage Pro2 Plus

www.meteolobios.es

High Low Average
Temperature 90.3°F32.4°F 65.5°F18.6°F 76.4°F24.7°F
Dew Point 74.8°F23.8°F 62.0°F16.7°F 66.5°F19.2°F
Winds 9.2 mph -14.8 mph - Calm Calm 3.2 mph 5.1 mph
Wind Gusts 19.6 mph31.5 mph -- 5.4 mph8.7 mph
Humidity 89% 44% 73%
Pressure 29.96 in1014.60 in 29.89 in1012.20 in -
Precipitation 0.00 in0.00 in - -
Hour Temp Dew Point Humidity Winds Wind Gusts Pressure Precip Precip Rate Daily Precip Total
12:00 AM 71.3°F21.8°C 64.4°F18.0°C 79% Calm Calm -- 29.95 in1014.2 mb - 0.00 in0.0 mm 0.00 in0.0 mm
12:10 AM 71.0°F21.7°C 64.2°F17.9°C 79% Calm Calm -- 29.95 in1014.2 mb - 0.00 in0.0 mm 0.00 in0.0 mm
12:20 AM 70.6°F21.4°C 64.2°F17.9°C 80% Calm Calm -- 29.95 in1014.2 mb - 0.00 in0.0 mm 0.00 in0.0 mm
12:30 AM 70.3°F21.3°C 64.2°F17.9°C 81% Calm Calm 1.1 mph1.8 kmh 29.94 in1013.9 mb - 0.00 in0.0 mm 0.00 in0.0 mm
12:40 AM 70.1°F21.2°C 64.0°F17.8°C 81% Calm Calm -- 29.94 in1013.9 mb - 0.00 in0.0 mm 0.00 in0.0 mm
12:50 AM 69.8°F21.0°C 63.7°F17.6°C 81% Calm Calm -- 29.94 in1013.9 mb - 0.00 in0.0 mm 0.00 in0.0 mm
01:00 AM 69.5°F20.8°C 63.4°F17.4°C 81% Calm Calm -- 29.94 in1013.9 mb - 0.00 in0.0 mm 0.00 in0.0 mm
01:10 AM 69.2°F20.7°C 63.5°F17.5°C 82% Calm Calm -- 29.94 in1013.9 mb - 0.00 in0.0 mm 0.00 in0.0 mm
01:20 AM 68.9°F20.5°C 63.5°F17.5°C 83% Calm Calm -- 29.93 in1013.5 mb - 0.00 in0.0 mm 0.00 in0.0 mm
01:30 AM 68.6°F20.3°C 63.6°F17.6°C 84% Calm Calm -- 29.93 in1013.5 mb - 0.00 in0.0 mm 0.00 in0.0 mm
01:40 AM 68.2°F20.1°C 63.2°F17.3°C 84% Calm Calm -- 29.93 in1013.5 mb - 0.00 in0.0 mm 0.00 in0.0 mm
01:50 AM 68.1°F20.1°C 63.4°F17.4°C 85% Calm Calm -- 29.93 in1013.5 mb - 0.00 in0.0 mm 0.00 in0.0 mm
02:00 AM 67.8°F19.9°C 63.2°F17.3°C 85% Calm Calm -- 29.93 in1013.5 mb - 0.00 in0.0 mm 0.00 in0.0 mm
02:10 AM 67.7°F19.8°C 63.0°F17.2°C 85% Calm Calm -- 29.93 in1013.5 mb - 0.00 in0.0 mm 0.00 in0.0 mm
02:20 AM 67.5°F19.7°C 62.8°F17.1°C 85% Calm Calm -- 29.93 in1013.5 mb - 0.00 in0.0 mm 0.00 in0.0 mm
02:30 AM 67.4°F19.7°C 63.1°F17.3°C 86% 2.3 mph SW3.7 kmh SW 3.5 mph5.6 kmh 29.92 in1013.2 mb - 0.00 in0.0 mm 0.00 in0.0 mm
02:40 AM 67.3°F19.6°C 63.0°F17.2°C 86% Calm Calm 1.1 mph1.8 kmh 29.92 in1013.2 mb - 0.00 in0.0 mm 0.00 in0.0 mm
02:50 AM 67.1°F19.5°C 62.8°F17.1°C 86% Calm Calm -- 29.92 in1013.2 mb - 0.00 in0.0 mm 0.00 in0.0 mm
03:00 AM 66.9°F19.4°C 62.9°F17.2°C 87% Calm Calm -- 29.92 in1013.2 mb - 0.00 in0.0 mm 0.00 in0.0 mm
03:10 AM 66.8°F19.3°C 62.8°F17.1°C 87% 1.1 mph SW1.8 kmh SW 2.3 mph3.7 kmh 29.91 in1012.9 mb - 0.00 in0.0 mm 0.00 in0.0 mm
03:20 AM 66.5°F19.2°C 62.8°F17.1°C 88% 2.3 mph SW3.7 kmh SW 3.5 mph5.6 kmh 29.91 in1012.9 mb - 0.00 in0.0 mm 0.00 in0.0 mm
03:30 AM 66.3°F19.1°C 62.6°F17.0°C 88% 2.3 mph SW3.7 kmh SW 4.6 mph7.4 kmh 29.91 in1012.9 mb - 0.00 in0.0 mm 0.00 in0.0 mm
03:40 AM 66.1°F18.9°C 62.4°F16.9°C 88% Calm Calm -- 29.91 in1012.9 mb - 0.00 in0.0 mm 0.00 in0.0 mm
03:50 AM 66.0°F18.9°C 62.7°F17.1°C 89% Calm Calm 1.1 mph1.8 kmh 29.91 in1012.9 mb - 0.00 in0.0 mm 0.00 in0.0 mm
04:00 AM 65.9°F18.8°C 62.6°F17.0°C 89% 4.6 mph N7.4 kmh N 4.6 mph7.4 kmh 29.91 in1012.9 mb - 0.00 in0.0 mm 0.00 in0.0 mm
04:10 AM 66.0°F18.9°C 62.7°F17.1°C 89% Calm Calm -- 29.91 in1012.9 mb - 0.00 in0.0 mm 0.00 in0.0 mm
04:20 AM 66.0°F18.9°C 62.6°F17.0°C 89% 3.5 mph SW5.6 kmh SW 3.5 mph5.6 kmh 29.90 in1012.5 mb - 0.00 in0.0 mm 0.00 in0.0 mm
04:30 AM 65.7°F18.7°C 62.4°F16.9°C 89% 2.3 mph SE3.7 kmh SE 3.5 mph5.6 kmh 29.90 in1012.5 mb - 0.00 in0.0 mm 0.00 in0.0 mm
04:40 AM 65.9°F18.8°C 62.5°F16.9°C 89% 4.6 mph N7.4 kmh N 5.8 mph9.3 kmh 29.90 in1012.5 mb - 0.00 in0.0 mm 0.00 in0.0 mm
04:50 AM 66.0°F18.9°C 62.7°F17.1°C 89% 1.1 mph NE1.8 kmh NE 3.5 mph5.6 kmh 29.90 in1012.5 mb - 0.00 in0.0 mm 0.00 in0.0 mm
05:00 AM 66.1°F18.9°C 62.8°F17.1°C 89% 3.5 mph NE5.6 kmh NE 4.6 mph7.4 kmh 29.90 in1012.5 mb - 0.00 in0.0 mm 0.00 in0.0 mm
05:10 AM 66.2°F19.0°C 62.9°F17.2°C 89% 1.1 mph NE1.8 kmh NE 4.6 mph7.4 kmh 29.90 in1012.5 mb - 0.00 in0.0 mm 0.00 in0.0 mm
05:20 AM 66.1°F18.9°C 62.8°F17.1°C 89% 1.1 mph NE1.8 kmh NE 3.5 mph5.6 kmh 29.90 in1012.5 mb - 0.00 in0.0 mm 0.00 in0.0 mm
05:30 AM 66.0°F18.9°C 62.7°F17.1°C 89% 6.9 mph N11.1 kmh N 8.1 mph13.0 kmh 29.90 in1012.5 mb - 0.00 in0.0 mm 0.00 in0.0 mm
05:40 AM 65.9°F18.8°C 62.6°F17.0°C 89% 1.1 mph NE1.8 kmh NE 3.5 mph5.6 kmh 29.90 in1012.5 mb - 0.00 in0.0 mm 0.00 in0.0 mm
05:50 AM 65.7°F18.7°C 62.1°F16.7°C 88% 1.1 mph NE1.8 kmh NE 3.5 mph5.6 kmh 29.91 in1012.9 mb - 0.00 in0.0 mm 0.00 in0.0 mm
06:00 AM 65.6°F18.7°C 62.3°F16.8°C 89% 2.3 mph NE3.7 kmh NE 5.8 mph9.3 kmh 29.91 in1012.9 mb - 0.00 in0.0 mm 0.00 in0.0 mm
06:10 AM 65.5°F18.6°C 62.2°F16.8°C 89% 4.6 mph NE7.4 kmh NE 6.9 mph11.1 kmh 29.91 in1012.9 mb - 0.00 in0.0 mm 0.00 in0.0 mm
06:20 AM 65.7°F18.7°C 62.0°F16.7°C 88% 3.5 mph ENE5.6 kmh ENE 5.8 mph9.3 kmh 29.91 in1012.9 mb - 0.00 in0.0 mm 0.00 in0.0 mm
06:30 AM 65.9°F18.8°C 62.2°F16.8°C 88% 3.5 mph ENE5.6 kmh ENE 8.1 mph13.0 kmh 29.92 in1013.2 mb - 0.00 in0.0 mm 0.00 in0.0 mm
06:40 AM 66.2°F19.0°C 62.5°F16.9°C 88% 3.5 mph NE5.6 kmh NE 8.1 mph13.0 kmh 29.92 in1013.2 mb - 0.00 in0.0 mm 0.00 in0.0 mm
06:50 AM 66.5°F19.2°C 62.8°F17.1°C 88% Calm Calm 2.3 mph3.7 kmh 29.92 in1013.2 mb - 0.00 in0.0 mm 0.00 in0.0 mm
07:00 AM 66.9°F19.4°C 62.5°F16.9°C 86% 4.6 mph E7.4 kmh E 4.6 mph7.4 kmh 29.92 in1013.2 mb - 0.00 in0.0 mm 0.00 in0.0 mm
07:10 AM 67.4°F19.7°C 62.7°F17.1°C 85% 1.1 mph E1.8 kmh E 2.3 mph3.7 kmh 29.92 in1013.2 mb - 0.00 in0.0 mm 0.00 in0.0 mm
07:20 AM 68.0°F20.0°C 63.0°F17.2°C 84% 2.3 mph E3.7 kmh E 4.6 mph7.4 kmh 29.92 in1013.2 mb - 0.00 in0.0 mm 0.00 in0.0 mm
07:30 AM 68.6°F20.3°C 62.9°F17.2°C 82% Calm Calm 3.5 mph5.6 kmh 29.92 in1013.2 mb - 0.00 in0.0 mm 0.00 in0.0 mm
07:40 AM 69.4°F20.8°C 63.3°F17.4°C 81% 3.5 mph ENE5.6 kmh ENE 3.5 mph5.6 kmh 29.92 in1013.2 mb - 0.00 in0.0 mm 0.00 in0.0 mm
07:50 AM 70.2°F21.2°C 63.0°F17.2°C 78% 4.6 mph NE7.4 kmh NE 9.2 mph14.8 kmh 29.93 in1013.5 mb - 0.00 in0.0 mm 0.00 in0.0 mm
08:00 AM 71.2°F21.8°C 63.2°F17.3°C 76% 3.5 mph NNE5.6 kmh NNE 5.8 mph9.3 kmh 29.93 in1013.5 mb - 0.00 in0.0 mm 0.00 in0.0 mm
08:10 AM 72.0°F22.2°C 64.0°F17.8°C 76% 2.3 mph ENE3.7 kmh ENE 4.6 mph7.4 kmh 29.92 in1013.2 mb - 0.00 in0.0 mm 0.00 in0.0 mm
08:20 AM 72.8°F22.7°C 63.7°F17.6°C 73% 4.6 mph NE7.4 kmh NE 6.9 mph11.1 kmh 29.92 in1013.2 mb - 0.00 in0.0 mm 0.00 in0.0 mm
08:30 AM 73.8°F23.2°C 63.0°F17.2°C 69% 5.8 mph NE9.3 kmh NE 9.2 mph14.8 kmh 29.92 in1013.2 mb - 0.00 in0.0 mm 0.00 in0.0 mm
08:40 AM 74.8°F23.8°C 64.3°F17.9°C 70% 2.3 mph NE3.7 kmh NE 5.8 mph9.3 kmh 29.92 in1013.2 mb - 0.00 in0.0 mm 0.00 in0.0 mm
08:50 AM 75.6°F24.2°C 63.4°F17.4°C 66% 6.9 mph NE11.1 kmh NE 8.1 mph13.0 kmh 29.92 in1013.2 mb - 0.00 in0.0 mm 0.00 in0.0 mm
09:00 AM 76.8°F24.9°C 64.6°F18.1°C 66% 5.8 mph NE9.3 kmh NE 6.9 mph11.1 kmh 29.92 in1013.2 mb - 0.00 in0.0 mm 0.00 in0.0 mm
09:10 AM 78.0°F25.6°C 64.3°F17.9°C 63% Calm Calm 1.1 mph1.8 kmh 29.92 in1013.2 mb - 0.00 in0.0 mm 0.00 in0.0 mm
09:20 AM 78.2°F25.7°C 65.5°F18.6°C 65% 1.1 mph E1.8 kmh E 2.3 mph3.7 kmh 29.92 in1013.2 mb - 0.00 in0.0 mm 0.00 in0.0 mm
09:30 AM 78.5°F25.8°C 64.4°F18.0°C 62% Calm Calm 1.1 mph1.8 kmh 29.92 in1013.2 mb - 0.00 in0.0 mm 0.00 in0.0 mm
09:40 AM 79.8°F26.6°C 65.6°F18.7°C 62% 3.5 mph SW5.6 kmh SW 4.6 mph7.4 kmh 29.92 in1013.2 mb - 0.00 in0.0 mm 0.00 in0.0 mm
09:50 AM 80.3°F26.8°C 66.0°F18.9°C 62% 4.6 mph SW7.4 kmh SW 5.8 mph9.3 kmh 29.92 in1013.2 mb - 0.00 in0.0 mm 0.00 in0.0 mm
10:00 AM 80.5°F26.9°C 65.8°F18.8°C 61% 3.5 mph SW5.6 kmh SW 4.6 mph7.4 kmh 29.92 in1013.2 mb - 0.00 in0.0 mm 0.00 in0.0 mm
10:10 AM 80.9°F27.2°C 66.2°F19.0°C 61% 2.3 mph WSW3.7 kmh WSW 2.3 mph3.7 kmh 29.92 in1013.2 mb - 0.00 in0.0 mm 0.00 in0.0 mm
10:20 AM 82.3°F27.9°C 67.1°F19.5°C 60% 4.6 mph SW7.4 kmh SW 6.9 mph11.1 kmh 29.92 in1013.2 mb - 0.00 in0.0 mm 0.00 in0.0 mm
10:30 AM 83.3°F28.5°C 66.0°F18.9°C 56% 2.3 mph SW3.7 kmh SW 3.5 mph5.6 kmh 29.92 in1013.2 mb - 0.00 in0.0 mm 0.00 in0.0 mm
10:40 AM 84.0°F28.9°C 67.2°F19.6°C 57% 3.5 mph SW5.6 kmh SW 5.8 mph9.3 kmh 29.92 in1013.2 mb - 0.00 in0.0 mm 0.00 in0.0 mm
10:50 AM 84.2°F29.0°C 64.7°F18.2°C 52% 4.6 mph SW7.4 kmh SW 6.9 mph11.1 kmh 29.92 in1013.2 mb - 0.00 in0.0 mm 0.00 in0.0 mm
11:00 AM 85.2°F29.6°C 63.3°F17.4°C 48% 1.1 mph SSW1.8 kmh SSW 1.1 mph1.8 kmh 29.92 in1013.2 mb - 0.00 in0.0 mm 0.00 in0.0 mm
11:10 AM 85.8°F29.9°C 65.6°F18.7°C 51% 3.5 mph SW5.6 kmh SW 4.6 mph7.4 kmh 29.92 in1013.2 mb - 0.00 in0.0 mm 0.00 in0.0 mm
11:20 AM 85.5°F29.7°C 65.3°F18.5°C 51% 2.3 mph SSE3.7 kmh SSE 3.5 mph5.6 kmh 29.92 in1013.2 mb - 0.00 in0.0 mm 0.00 in0.0 mm
11:30 AM 85.9°F29.9°C 64.5°F18.1°C 49% 4.6 mph SSW7.4 kmh SSW 5.8 mph9.3 kmh 29.92 in1013.2 mb - 0.00 in0.0 mm 0.00 in0.0 mm
11:40 AM 86.2°F30.1°C 64.8°F18.2°C 49% 2.3 mph SSW3.7 kmh SSW 5.8 mph9.3 kmh 29.93 in1013.5 mb - 0.00 in0.0 mm 0.00 in0.0 mm
11:50 AM 85.4°F29.7°C 64.6°F18.1°C 50% 4.6 mph NNE7.4 kmh NNE 5.8 mph9.3 kmh 29.93 in1013.5 mb - 0.00 in0.0 mm 0.00 in0.0 mm
12:00 PM 85.1°F29.5°C 65.5°F18.6°C 52% 1.1 mph NNE1.8 kmh NNE 5.8 mph9.3 kmh 29.93 in1013.5 mb - 0.00 in0.0 mm 0.00 in0.0 mm
12:10 PM 85.7°F29.8°C 64.3°F17.9°C 49% 3.5 mph N5.6 kmh N 5.8 mph9.3 kmh 29.92 in1013.2 mb - 0.00 in0.0 mm 0.00 in0.0 mm
12:20 PM 86.2°F30.1°C 64.8°F18.2°C 49% 3.5 mph NW5.6 kmh NW 6.9 mph11.1 kmh 29.92 in1013.2 mb - 0.00 in0.0 mm 0.00 in0.0 mm
12:30 PM 86.6°F30.3°C 64.0°F17.8°C 47% 4.6 mph W7.4 kmh W 8.1 mph13.0 kmh 29.92 in1013.2 mb - 0.00 in0.0 mm 0.00 in0.0 mm
12:40 PM 88.0°F31.1°C 66.4°F19.1°C 49% 2.3 mph SSW3.7 kmh SSW 2.3 mph3.7 kmh 29.92 in1013.2 mb - 0.00 in0.0 mm 0.00 in0.0 mm
12:50 PM 88.2°F31.2°C 65.4°F18.6°C 47% 1.1 mph SSW1.8 kmh SSW 3.5 mph5.6 kmh 29.92 in1013.2 mb - 0.00 in0.0 mm 0.00 in0.0 mm
01:00 PM 88.2°F31.2°C 63.5°F17.5°C 44% 3.5 mph WSW5.6 kmh WSW 4.6 mph7.4 kmh 29.92 in1013.2 mb - 0.00 in0.0 mm 0.00 in0.0 mm
01:10 PM 88.9°F31.6°C 66.1°F18.9°C 47% Calm Calm 6.9 mph11.1 kmh 29.92 in1013.2 mb - 0.00 in0.0 mm 0.00 in0.0 mm
01:20 PM 88.7°F31.5°C 65.8°F18.8°C 47% 5.8 mph SW9.3 kmh SW 5.8 mph9.3 kmh 29.91 in1012.9 mb - 0.00 in0.0 mm 0.00 in0.0 mm
01:30 PM 88.7°F31.5°C 66.5°F19.2°C 48% 4.6 mph W7.4 kmh W 6.9 mph11.1 kmh 29.91 in1012.9 mb - 0.00 in0.0 mm 0.00 in0.0 mm
01:40 PM 89.5°F31.9°C 68.4°F20.2°C 50% 2.3 mph SW3.7 kmh SW 8.1 mph13.0 kmh 29.91 in1012.9 mb - 0.00 in0.0 mm 0.00 in0.0 mm
01:50 PM 89.0°F31.7°C 69.1°F20.6°C 52% 1.1 mph WSW1.8 kmh WSW 4.6 mph7.4 kmh 29.91 in1012.9 mb - 0.00 in0.0 mm 0.00 in0.0 mm
02:00 PM 90.1°F32.3°C 70.1°F21.2°C 52% 3.5 mph SSW5.6 kmh SSW 9.2 mph14.8 kmh 29.91 in1012.9 mb - 0.00 in0.0 mm 0.00 in0.0 mm
02:10 PM 90.3°F32.4°C 71.4°F21.9°C 54% 5.8 mph SW9.3 kmh SW 8.1 mph13.0 kmh 29.91 in1012.9 mb - 0.00 in0.0 mm 0.00 in0.0 mm
02:20 PM 90.1°F32.3°C 71.2°F21.8°C 54% 6.9 mph SW11.1 kmh SW 11.5 mph18.5 kmh 29.91 in1012.9 mb - 0.00 in0.0 mm 0.00 in0.0 mm
02:30 PM 89.7°F32.1°C 71.9°F22.2°C 56% 4.6 mph SW7.4 kmh SW 6.9 mph11.1 kmh 29.90 in1012.5 mb - 0.00 in0.0 mm 0.00 in0.0 mm
02:40 PM 89.0°F31.7°C 72.8°F22.7°C 59% 6.9 mph SW11.1 kmh SW 11.5 mph18.5 kmh 29.90 in1012.5 mb - 0.00 in0.0 mm 0.00 in0.0 mm
02:50 PM 89.1°F31.7°C 73.4°F23.0°C 60% 6.9 mph SW11.1 kmh SW 11.5 mph18.5 kmh 29.90 in1012.5 mb - 0.00 in0.0 mm 0.00 in0.0 mm
03:00 PM 87.9°F31.1°C 73.7°F23.2°C 63% 6.9 mph SW11.1 kmh SW 13.8 mph22.2 kmh 29.90 in1012.5 mb - 0.00 in0.0 mm 0.00 in0.0 mm
03:10 PM 87.6°F30.9°C 73.9°F23.3°C 64% 5.8 mph SW9.3 kmh SW 11.5 mph18.5 kmh 29.90 in1012.5 mb - 0.00 in0.0 mm 0.00 in0.0 mm
03:20 PM 88.1°F31.2°C 74.8°F23.8°C 65% 4.6 mph SW7.4 kmh SW 8.1 mph13.0 kmh 29.90 in1012.5 mb - 0.00 in0.0 mm 0.00 in0.0 mm
03:30 PM 87.6°F30.9°C 73.5°F23.1°C 63% 8.1 mph SW13.0 kmh SW 10.4 mph16.7 kmh 29.90 in1012.5 mb - 0.00 in0.0 mm 0.00 in0.0 mm
03:40 PM 88.1°F31.2°C 73.9°F23.3°C 63% 8.1 mph SW13.0 kmh SW 12.7 mph20.4 kmh 29.90 in1012.5 mb - 0.00 in0.0 mm 0.00 in0.0 mm
03:50 PM 87.4°F30.8°C 73.7°F23.2°C 64% 5.8 mph SW9.3 kmh SW 11.5 mph18.5 kmh 29.90 in1012.5 mb - 0.00 in0.0 mm 0.00 in0.0 mm
04:00 PM 87.3°F30.7°C 73.6°F23.1°C 64% 9.2 mph SW14.8 kmh SW 19.6 mph31.5 kmh 29.90 in1012.5 mb - 0.00 in0.0 mm 0.00 in0.0 mm
04:10 PM 86.5°F30.3°C 73.4°F23.0°C 65% 8.1 mph SW13.0 kmh SW 8.1 mph13.0 kmh 29.90 in1012.5 mb - 0.00 in0.0 mm 0.00 in0.0 mm
04:20 PM 85.2°F29.6°C 73.0°F22.8°C 67% 6.9 mph WSW11.1 kmh WSW 11.5 mph18.5 kmh 29.90 in1012.5 mb - 0.00 in0.0 mm 0.00 in0.0 mm
04:30 PM 85.2°F29.6°C 73.4°F23.0°C 68% 6.9 mph SW11.1 kmh SW 11.5 mph18.5 kmh 29.90 in1012.5 mb - 0.00 in0.0 mm 0.00 in0.0 mm
04:40 PM 85.2°F29.6°C 73.0°F22.8°C 67% 5.8 mph SW9.3 kmh SW 9.2 mph14.8 kmh 29.90 in1012.5 mb - 0.00 in0.0 mm 0.00 in0.0 mm
04:50 PM 84.6°F29.2°C 72.9°F22.7°C 68% 5.8 mph SW9.3 kmh SW 12.7 mph20.4 kmh 29.90 in1012.5 mb - 0.00 in0.0 mm 0.00 in0.0 mm
05:00 PM 84.6°F29.2°C 72.4°F22.4°C 67% 5.8 mph SW9.3 kmh SW 8.1 mph13.0 kmh 29.90 in1012.5 mb - 0.00 in0.0 mm 0.00 in0.0 mm
05:10 PM 84.5°F29.2°C 72.8°F22.7°C 68% 3.5 mph SW5.6 kmh SW 5.8 mph9.3 kmh 29.90 in1012.5 mb - 0.00 in0.0 mm 0.00 in0.0 mm
05:20 PM 84.4°F29.1°C 72.7°F22.6°C 68% 5.8 mph W9.3 kmh W 6.9 mph11.1 kmh 29.90 in1012.5 mb - 0.00 in0.0 mm 0.00 in0.0 mm
05:30 PM 84.1°F28.9°C 72.4°F22.4°C 68% 5.8 mph WSW9.3 kmh WSW 11.5 mph18.5 kmh 29.90 in1012.5 mb - 0.00 in0.0 mm 0.00 in0.0 mm
05:40 PM 83.9°F28.8°C 72.2°F22.3°C 68% 6.9 mph SW11.1 kmh SW 10.4 mph16.7 kmh 29.90 in1012.5 mb - 0.00 in0.0 mm 0.00 in0.0 mm
05:50 PM 84.0°F28.9°C 72.3°F22.4°C 68% 5.8 mph SW9.3 kmh SW 6.9 mph11.1 kmh 29.90 in1012.5 mb - 0.00 in0.0 mm 0.00 in0.0 mm
06:00 PM 83.8°F28.8°C 72.5°F22.5°C 69% 3.5 mph SSW5.6 kmh SSW 4.6 mph7.4 kmh 29.89 in1012.2 mb - 0.00 in0.0 mm 0.00 in0.0 mm
06:10 PM 83.9°F28.8°C 72.6°F22.6°C 69% 5.8 mph SW9.3 kmh SW 8.1 mph13.0 kmh 29.89 in1012.2 mb - 0.00 in0.0 mm 0.00 in0.0 mm
06:20 PM 83.7°F28.7°C 72.4°F22.4°C 69% 2.3 mph SW3.7 kmh SW 5.8 mph9.3 kmh 29.89 in1012.2 mb - 0.00 in0.0 mm 0.00 in0.0 mm
06:30 PM 83.0°F28.3°C 71.8°F22.1°C 69% 4.6 mph SW7.4 kmh SW 5.8 mph9.3 kmh 29.90 in1012.5 mb - 0.00 in0.0 mm 0.00 in0.0 mm
06:40 PM 82.7°F28.2°C 71.5°F21.9°C 69% 5.8 mph SW9.3 kmh SW 9.2 mph14.8 kmh 29.90 in1012.5 mb - 0.00 in0.0 mm 0.00 in0.0 mm
06:50 PM 82.4°F28.0°C 71.6°F22.0°C 70% 3.5 mph SW5.6 kmh SW 4.6 mph7.4 kmh 29.90 in1012.5 mb - 0.00 in0.0 mm 0.00 in0.0 mm
07:00 PM 82.1°F27.8°C 71.3°F21.8°C 70% 3.5 mph WSW5.6 kmh WSW 6.9 mph11.1 kmh 29.90 in1012.5 mb - 0.00 in0.0 mm 0.00 in0.0 mm
07:10 PM 81.6°F27.6°C 71.3°F21.8°C 71% 3.5 mph WSW5.6 kmh WSW 9.2 mph14.8 kmh 29.90 in1012.5 mb - 0.00 in0.0 mm 0.00 in0.0 mm
07:20 PM 80.9°F27.2°C 71.0°F21.7°C 72% 5.8 mph SW9.3 kmh SW 10.4 mph16.7 kmh 29.90 in1012.5 mb - 0.00 in0.0 mm 0.00 in0.0 mm
07:30 PM 80.0°F26.7°C 70.6°F21.4°C 73% 5.8 mph WSW9.3 kmh WSW 10.4 mph16.7 kmh 29.91 in1012.9 mb - 0.00 in0.0 mm 0.00 in0.0 mm
07:40 PM 79.2°F26.2°C 70.2°F21.2°C 74% 5.8 mph SW9.3 kmh SW 11.5 mph18.5 kmh 29.91 in1012.9 mb - 0.00 in0.0 mm 0.00 in0.0 mm
07:50 PM 78.3°F25.7°C 70.1°F21.2°C 76% 4.6 mph SSW7.4 kmh SSW 9.2 mph14.8 kmh 29.91 in1012.9 mb - 0.00 in0.0 mm 0.00 in0.0 mm
08:00 PM 77.5°F25.3°C 69.7°F20.9°C 77% 5.8 mph SW9.3 kmh SW 11.5 mph18.5 kmh 29.92 in1013.2 mb - 0.00 in0.0 mm 0.00 in0.0 mm
08:10 PM 76.9°F24.9°C 69.1°F20.6°C 77% 8.1 mph SW13.0 kmh SW 10.4 mph16.7 kmh 29.92 in1013.2 mb - 0.00 in0.0 mm 0.00 in0.0 mm
08:20 PM 76.2°F24.6°C 68.8°F20.4°C 78% 6.9 mph WSW11.1 kmh WSW 9.2 mph14.8 kmh 29.92 in1013.2 mb - 0.00 in0.0 mm 0.00 in0.0 mm
08:30 PM 75.2°F24.0°C 68.3°F20.2°C 79% 5.8 mph SW9.3 kmh SW 8.1 mph13.0 kmh 29.92 in1013.2 mb - 0.00 in0.0 mm 0.00 in0.0 mm
08:40 PM 74.4°F23.6°C 67.8°F19.9°C 80% 5.8 mph SW9.3 kmh SW 11.5 mph18.5 kmh 29.93 in1013.5 mb - 0.00 in0.0 mm 0.00 in0.0 mm
08:50 PM 73.9°F23.3°C 67.7°F19.8°C 81% 5.8 mph SW9.3 kmh SW 8.1 mph13.0 kmh 29.93 in1013.5 mb - 0.00 in0.0 mm 0.00 in0.0 mm
09:00 PM 73.4°F23.0°C 67.6°F19.8°C 82% 4.6 mph SW7.4 kmh SW 5.8 mph9.3 kmh 29.93 in1013.5 mb - 0.00 in0.0 mm 0.00 in0.0 mm
09:10 PM 72.9°F22.7°C 67.1°F19.5°C 82% 4.6 mph SW7.4 kmh SW 8.1 mph13.0 kmh 29.93 in1013.5 mb - 0.00 in0.0 mm 0.00 in0.0 mm
09:20 PM 72.3°F22.4°C 66.9°F19.4°C 83% 5.8 mph WSW9.3 kmh WSW 10.4 mph16.7 kmh 29.93 in1013.5 mb - 0.00 in0.0 mm 0.00 in0.0 mm
09:30 PM 71.9°F22.2°C 66.8°F19.3°C 84% 4.6 mph SW7.4 kmh SW 6.9 mph11.1 kmh 29.93 in1013.5 mb - 0.00 in0.0 mm 0.00 in0.0 mm
09:40 PM 71.5°F21.9°C 66.8°F19.3°C 85% Calm Calm 1.1 mph1.8 kmh 29.94 in1013.9 mb - 0.00 in0.0 mm 0.00 in0.0 mm
09:50 PM 71.3°F21.8°C 66.5°F19.2°C 85% 2.3 mph W3.7 kmh W 3.5 mph5.6 kmh 29.94 in1013.9 mb - 0.00 in0.0 mm 0.00 in0.0 mm
10:00 PM 71.0°F21.7°C 66.6°F19.2°C 86% 1.1 mph SSW1.8 kmh SSW 3.5 mph5.6 kmh 29.95 in1014.2 mb - 0.00 in0.0 mm 0.00 in0.0 mm
10:10 PM 70.8°F21.6°C 66.4°F19.1°C 86% Calm Calm 1.1 mph1.8 kmh 29.95 in1014.2 mb - 0.00 in0.0 mm 0.00 in0.0 mm
10:20 PM 70.7°F21.5°C 66.3°F19.1°C 86% Calm Calm -- 29.95 in1014.2 mb - 0.00 in0.0 mm 0.00 in0.0 mm
10:30 PM 70.5°F21.4°C 66.1°F18.9°C 86% Calm Calm 1.1 mph1.8 kmh 29.95 in1014.2 mb - 0.00 in0.0 mm 0.00 in0.0 mm
10:40 PM 70.2°F21.2°C 65.8°F18.8°C 86% Calm Calm -- 29.96 in1014.6 mb - 0.00 in0.0 mm 0.00 in0.0 mm
10:50 PM 69.9°F21.1°C 65.5°F18.6°C 86% Calm Calm -- 29.96 in1014.6 mb - 0.00 in0.0 mm 0.00 in0.0 mm
11:00 PM 69.5°F20.8°C 65.1°F18.4°C 86% Calm Calm -- 29.96 in1014.6 mb - 0.00 in0.0 mm 0.00 in0.0 mm
11:10 PM 69.1°F20.6°C 64.7°F18.2°C 86% Calm Calm -- 29.96 in1014.6 mb - 0.00 in0.0 mm 0.00 in0.0 mm
11:20 PM 68.7°F20.4°C 64.6°F18.1°C 87% Calm Calm 3.5 mph5.6 kmh 29.96 in1014.6 mb - 0.00 in0.0 mm 0.00 in0.0 mm
11:30 PM 68.2°F20.1°C 64.1°F17.8°C 87% 2.3 mph WSW3.7 kmh WSW 5.8 mph9.3 kmh 29.96 in1014.6 mb - 0.00 in0.0 mm 0.00 in0.0 mm
11:40 PM 67.6°F19.8°C 63.6°F17.6°C 87% 2.3 mph W3.7 kmh W 3.5 mph5.6 kmh 29.96 in1014.6 mb - 0.00 in0.0 mm 0.00 in0.0 mm
11:50 PM 67.1°F19.5°C 63.4°F17.4°C 88% Calm Calm 2.3 mph3.7 kmh 29.96 in1014.6 mb - 0.00 in0.0 mm 0.00 in0.0 mm